Decoded Metar for KOZW (HOWELL in MI, USA) (IATA:OZW) | Meteo·Mobile Aviation Weather
aviador You're here:

KOZW Decoded Metar

HOWELL in MI, USA
Report Time2018-09-22 10:35:00
UTC Time2018-09-22 10:45:40
Flight Rules vfr VFR
Wind020° at 03 kt
W.Decomp.*RWY 31: 0.8 kt HW 2.9 kt RCW
W.Rank020° ranks 35
Current wind is below 020° avg. (4.9)
Visibility9999 m
Phenomena:N/A
Clouds:Scattered 030 Hf
Expected CloudBase > 1,200 ft AGL from Temp-Dew spread
CeilingNone
Temp09°C (ISA -4)
Dew Point06°C (82% RH)
AAT7.0°C
QNH1026 hPa
Density Alt164 ft
Elevation961 ft
Report Wrong Elevation
Raw Report
METAR KOZW 221035Z AUTO 02003KT 10SM SCT030 09/06 A3030 RMK AO2 T00940055=

Extra information for KOZW:More info

Metar Taf Metar & Taf Last 4 Metars F.Rules Stats Wind Profile Meteogram Temp Stats Airport Information Weather charts Add Link Nearby VenuesMetar ALERT Operation Metar Decoded Social comments

AIRNAV info for KOZW